sensor_id;sensor_type;location;lat;lon;timestamp;pressure;altitude;pressure_sealevel;temperature;humidity
27425;BME280;15244;49.088;11.886;2022-09-13T00:00:02;95591.03;;;18.64;47.98
27425;BME280;15244;49.088;11.886;2022-09-13T00:05:05;95588.81;;;18.59;48.05
27425;BME280;15244;49.088;11.886;2022-09-13T00:10:08;95584.94;;;18.56;48.27
27425;BME280;15244;49.088;11.886;2022-09-13T00:15:10;95576.75;;;18.53;48.32
27425;BME280;15244;49.088;11.886;2022-09-13T00:20:12;95579.63;;;18.49;48.16
27425;BME280;15244;49.088;11.886;2022-09-13T00:25:14;95585.25;;;18.46;48.54
27425;BME280;15244;49.088;11.886;2022-09-13T00:30:15;95576.66;;;18.44;48.41
27425;BME280;15244;49.088;11.886;2022-09-13T00:35:17;95567.69;;;18.39;48.56
27425;BME280;15244;49.088;11.886;2022-09-13T00:40:19;95560.72;;;18.35;48.60
27425;BME280;15244;49.088;11.886;2022-09-13T00:45:22;95557.31;;;18.31;48.63
27425;BME280;15244;49.088;11.886;2022-09-13T00:50:37;95555.41;;;18.28;48.84
27425;BME280;15244;49.088;11.886;2022-09-13T00:55:51;95554.75;;;18.24;48.79
27425;BME280;15244;49.088;11.886;2022-09-13T01:00:56;95554.41;;;18.22;49.08
27425;BME280;15244;49.088;11.886;2022-09-13T01:06:06;95544.25;;;18.18;49.22
27425;BME280;15244;49.088;11.886;2022-09-13T01:11:17;95547.88;;;18.15;49.15
27425;BME280;15244;49.088;11.886;2022-09-13T01:16:20;95550.72;;;18.12;49.42
27425;BME280;15244;49.088;11.886;2022-09-13T01:32:08;95547.94;;;17.99;49.53
27425;BME280;15244;49.088;11.886;2022-09-13T01:37:26;95552.00;;;17.94;50.04
27425;BME280;15244;49.088;11.886;2022-09-13T01:42:45;95528.81;;;17.92;49.74
27425;BME280;15244;49.088;11.886;2022-09-13T01:53:50;95515.66;;;17.83;50.41
27425;BME280;15244;49.088;11.886;2022-09-13T01:58:58;95533.88;;;17.81;50.91
27425;BME280;15244;49.088;11.886;2022-09-13T02:04:06;95531.94;;;17.77;50.85
27425;BME280;15244;49.088;11.886;2022-09-13T02:09:12;95536.00;;;17.73;51.38
27425;BME280;15244;49.088;11.886;2022-09-13T02:14:30;95551.44;;;17.70;51.55
27425;BME280;15244;49.088;11.886;2022-09-13T02:19:54;95547.13;;;17.69;51.70
27425;BME280;15244;49.088;11.886;2022-09-13T02:25:05;95552.31;;;17.67;51.90
27425;BME280;15244;49.088;11.886;2022-09-13T02:30:09;95539.72;;;17.66;51.93
27425;BME280;15244;49.088;11.886;2022-09-13T02:35:23;95542.94;;;17.65;51.99
27425;BME280;15244;49.088;11.886;2022-09-13T02:40:31;95537.06;;;17.63;51.82
27425;BME280;15244;49.088;11.886;2022-09-13T02:45:46;95545.88;;;17.58;51.78
27425;BME280;15244;49.088;11.886;2022-09-13T02:50:58;95543.63;;;17.52;52.10
27425;BME280;15244;49.088;11.886;2022-09-13T02:56:06;95544.47;;;17.49;52.12
27425;BME280;15244;49.088;11.886;2022-09-13T03:01:11;95542.59;;;17.46;52.12
27425;BME280;15244;49.088;11.886;2022-09-13T03:06:27;95533.97;;;17.44;52.08
27425;BME280;15244;49.088;11.886;2022-09-13T03:11:46;95513.56;;;17.42;52.44
27425;BME280;15244;49.088;11.886;2022-09-13T03:22:22;95487.88;;;17.32;53.00
27425;BME280;15244;49.088;11.886;2022-09-13T03:27:40;95481.25;;;17.29;53.20
27425;BME280;15244;49.088;11.886;2022-09-13T03:38:20;95479.44;;;17.23;53.08
27425;BME280;15244;49.088;11.886;2022-09-13T03:43:39;95485.03;;;17.19;52.92
27425;BME280;15244;49.088;11.886;2022-09-13T03:48:43;95488.66;;;17.16;53.17
27425;BME280;15244;49.088;11.886;2022-09-13T03:53:50;95498.53;;;17.14;53.25
27425;BME280;15244;49.088;11.886;2022-09-13T03:58:53;95493.47;;;17.12;53.34
27425;BME280;15244;49.088;11.886;2022-09-13T04:03:55;95497.88;;;17.09;53.36
27425;BME280;15244;49.088;11.886;2022-09-13T04:08:57;95486.50;;;17.07;53.34
27425;BME280;15244;49.088;11.886;2022-09-13T04:13:59;95482.19;;;17.06;53.46
27425;BME280;15244;49.088;11.886;2022-09-13T04:19:01;95481.06;;;17.04;53.62
27425;BME280;15244;49.088;11.886;2022-09-13T04:24:03;95497.28;;;17.02;53.49
27425;BME280;15244;49.088;11.886;2022-09-13T04:29:04;95501.66;;;16.99;53.82
27425;BME280;15244;49.088;11.886;2022-09-13T04:34:06;95498.22;;;16.95;53.93
27425;BME280;15244;49.088;11.886;2022-09-13T04:39:08;95505.25;;;16.96;53.94
27425;BME280;15244;49.088;11.886;2022-09-13T04:44:10;95498.22;;;16.95;54.23
27425;BME280;15244;49.088;11.886;2022-09-13T04:49:12;95505.34;;;16.93;54.33
27425;BME280;15244;49.088;11.886;2022-09-13T04:54:15;95501.06;;;16.92;54.44
27425;BME280;15244;49.088;11.886;2022-09-13T04:59:17;95511.28;;;16.91;54.26
27425;BME280;15244;49.088;11.886;2022-09-13T05:04:18;95506.22;;;16.89;54.57
27425;BME280;15244;49.088;11.886;2022-09-13T05:09:19;95498.38;;;16.88;54.36
27425;BME280;15244;49.088;11.886;2022-09-13T05:14:21;95497.63;;;16.87;54.67
27425;BME280;15244;49.088;11.886;2022-09-13T05:19:23;95501.59;;;16.86;54.70
27425;BME280;15244;49.088;11.886;2022-09-13T05:24:24;95498.84;;;16.86;54.42
27425;BME280;15244;49.088;11.886;2022-09-13T05:29:26;95499.59;;;16.87;54.59
27425;BME280;15244;49.088;11.886;2022-09-13T05:34:27;95507.88;;;16.87;54.93
27425;BME280;15244;49.088;11.886;2022-09-13T05:39:29;95505.09;;;16.87;54.76
27425;BME280;15244;49.088;11.886;2022-09-13T05:44:51;95510.16;;;16.88;54.93
27425;BME280;15244;49.088;11.886;2022-09-13T05:49:52;95521.97;;;16.89;55.02
27425;BME280;15244;49.088;11.886;2022-09-13T05:55:14;95519.66;;;16.87;55.01
27425;BME280;15244;49.088;11.886;2022-09-13T06:00:16;95512.16;;;16.88;55.27
27425;BME280;15244;49.088;11.886;2022-09-13T06:05:17;95510.97;;;16.89;55.18
27425;BME280;15244;49.088;11.886;2022-09-13T06:10:19;95509.66;;;16.94;55.00
27425;BME280;15244;49.088;11.886;2022-09-13T06:15:21;95496.16;;;16.99;55.24
27425;BME280;15244;49.088;11.886;2022-09-13T06:20:22;95496.75;;;17.07;55.30
27425;BME280;15244;49.088;11.886;2022-09-13T06:25:24;95490.28;;;17.14;55.47
27425;BME280;15244;49.088;11.886;2022-09-13T06:30:25;95490.03;;;17.24;55.39
27425;BME280;15244;49.088;11.886;2022-09-13T06:35:27;95500.44;;;17.33;55.58
27425;BME280;15244;49.088;11.886;2022-09-13T06:40:29;95514.78;;;17.41;55.22
27425;BME280;15244;49.088;11.886;2022-09-13T06:45:30;95510.28;;;17.47;55.72
27425;BME280;15244;49.088;11.886;2022-09-13T06:50:32;95521.06;;;17.58;55.49
27425;BME280;15244;49.088;11.886;2022-09-13T06:55:33;95510.97;;;17.67;55.40
27425;BME280;15244;49.088;11.886;2022-09-13T07:00:35;95507.91;;;17.78;55.38
27425;BME280;15244;49.088;11.886;2022-09-13T07:05:38;95499.78;;;17.87;55.22
27425;BME280;15244;49.088;11.886;2022-09-13T07:10:40;95511.84;;;17.93;55.02
27425;BME280;15244;49.088;11.886;2022-09-13T07:15:41;95518.69;;;18.02;55.04
27425;BME280;15244;49.088;11.886;2022-09-13T07:26:36;95512.44;;;18.14;55.36
27425;BME280;15244;49.088;11.886;2022-09-13T07:31:47;95515.00;;;18.21;55.01
27425;BME280;15244;49.088;11.886;2022-09-13T07:36:58;95498.13;;;18.32;55.11
27425;BME280;15244;49.088;11.886;2022-09-13T07:41:59;95501.44;;;18.39;55.05
27425;BME280;15244;49.088;11.886;2022-09-13T07:47:01;95506.75;;;18.47;54.74
27425;BME280;15244;49.088;11.886;2022-09-13T07:52:03;95504.56;;;18.54;54.85
27425;BME280;15244;49.088;11.886;2022-09-13T07:57:04;95515.38;;;18.61;54.86
27425;BME280;15244;49.088;11.886;2022-09-13T08:02:08;95527.31;;;18.71;54.81
27425;BME280;15244;49.088;11.886;2022-09-13T08:07:10;95523.91;;;18.80;54.70
27425;BME280;15244;49.088;11.886;2022-09-13T08:12:11;95522.47;;;18.88;54.63
27425;BME280;15244;49.088;11.886;2022-09-13T08:17:13;95524.25;;;18.95;54.73
27425;BME280;15244;49.088;11.886;2022-09-13T08:22:15;95526.31;;;19.03;54.63
27425;BME280;15244;49.088;11.886;2022-09-13T08:27:16;95520.56;;;19.11;54.59
27425;BME280;15244;49.088;11.886;2022-09-13T08:32:17;95510.81;;;19.19;54.60
27425;BME280;15244;49.088;11.886;2022-09-13T08:37:19;95510.91;;;19.28;54.44
27425;BME280;15244;49.088;11.886;2022-09-13T08:42:29;95513.66;;;19.41;54.44
27425;BME280;15244;49.088;11.886;2022-09-13T08:48:03;95510.09;;;19.53;54.38
27425;BME280;15244;49.088;11.886;2022-09-13T08:53:28;95494.13;;;19.70;54.29
27425;BME280;15244;49.088;11.886;2022-09-13T09:04:13;95487.09;;;20.00;53.97
27425;BME280;15244;49.088;11.886;2022-09-13T09:09:18;95485.97;;;20.10;53.86
27425;BME280;15244;49.088;11.886;2022-09-13T09:14:33;95482.47;;;20.19;53.77
27425;BME280;15244;49.088;11.886;2022-09-13T09:19:41;95480.38;;;20.32;53.50
27425;BME280;15244;49.088;11.886;2022-09-13T09:24:49;95494.91;;;20.46;53.44
27425;BME280;15244;49.088;11.886;2022-09-13T09:29:53;95501.50;;;20.61;53.44
27425;BME280;15244;49.088;11.886;2022-09-13T09:40:24;95494.50;;;20.88;53.15
27425;BME280;15244;49.088;11.886;2022-09-13T09:45:37;95487.16;;;21.03;53.40
27425;BME280;15244;49.088;11.886;2022-09-13T09:50:49;95487.78;;;21.16;52.87
27425;BME280;15244;49.088;11.886;2022-09-13T09:55:58;95483.66;;;21.30;52.46
27425;BME280;15244;49.088;11.886;2022-09-13T10:01:00;95469.69;;;21.43;52.61
27425;BME280;15244;49.088;11.886;2022-09-13T10:06:10;95462.31;;;21.58;52.49
27425;BME280;15244;49.088;11.886;2022-09-13T10:11:12;95450.59;;;21.73;52.13
27425;BME280;15244;49.088;11.886;2022-09-13T10:16:27;95454.91;;;21.83;51.89
27425;BME280;15244;49.088;11.886;2022-09-13T10:21:30;95463.06;;;21.86;51.37
27425;BME280;15244;49.088;11.886;2022-09-13T10:26:32;95465.19;;;21.92;51.63
27425;BME280;15244;49.088;11.886;2022-09-13T10:31:40;95462.75;;;21.94;51.47
27425;BME280;15244;49.088;11.886;2022-09-13T10:36:56;95479.69;;;21.96;51.16
27425;BME280;15244;49.088;11.886;2022-09-13T10:42:04;95479.22;;;21.97;51.21
27425;BME280;15244;49.088;11.886;2022-09-13T10:47:16;95471.06;;;22.03;51.27
27425;BME280;15244;49.088;11.886;2022-09-13T10:52:33;95461.81;;;22.06;50.97
27425;BME280;15244;49.088;11.886;2022-09-13T10:57:36;95441.75;;;22.11;51.15
27425;BME280;15244;49.088;11.886;2022-09-13T11:19:13;95439.25;;;22.32;50.97
27425;BME280;15244;49.088;11.886;2022-09-13T11:35:21;95431.97;;;22.43;51.04
27425;BME280;15244;49.088;11.886;2022-09-13T11:40:34;95413.09;;;22.47;50.89
27425;BME280;15244;49.088;11.886;2022-09-13T11:56:28;95406.09;;;22.61;51.04
27425;BME280;15244;49.088;11.886;2022-09-13T12:01:44;95411.59;;;22.70;51.10
27425;BME280;15244;49.088;11.886;2022-09-13T12:06:51;95417.88;;;22.80;50.67
27425;BME280;15244;49.088;11.886;2022-09-13T12:12:10;95408.25;;;22.90;50.79
27425;BME280;15244;49.088;11.886;2022-09-13T12:17:26;95427.69;;;23.00;50.64
27425;BME280;15244;49.088;11.886;2022-09-13T12:22:33;95427.16;;;23.10;50.46
27425;BME280;15244;49.088;11.886;2022-09-13T12:27:45;95422.75;;;23.19;50.32
27425;BME280;15244;49.088;11.886;2022-09-13T12:32:52;95422.13;;;23.24;50.16
27425;BME280;15244;49.088;11.886;2022-09-13T12:38:33;95435.06;;;23.27;49.98
27425;BME280;15244;49.088;11.886;2022-09-13T12:44:15;95429.50;;;23.27;49.73
27425;BME280;15244;49.088;11.886;2022-09-13T12:49:30;95412.81;;;23.27;49.72
27425;BME280;15244;49.088;11.886;2022-09-13T12:54:49;95417.63;;;23.26;49.73
27425;BME280;15244;49.088;11.886;2022-09-13T13:00:27;95398.91;;;23.27;49.66
27425;BME280;15244;49.088;11.886;2022-09-13T13:05:34;95410.03;;;23.27;49.62
27425;BME280;15244;49.088;11.886;2022-09-13T13:10:37;95410.53;;;23.25;49.55
27425;BME280;15244;49.088;11.886;2022-09-13T13:30:57;95394.31;;;23.24;49.77
27425;BME280;15244;49.088;11.886;2022-09-13T13:46:34;95376.56;;;23.21;49.76
27425;BME280;15244;49.088;11.886;2022-09-13T13:51:35;95376.25;;;23.19;49.92
27425;BME280;15244;49.088;11.886;2022-09-13T13:56:46;95365.63;;;23.18;50.03
27425;BME280;15244;49.088;11.886;2022-09-13T14:01:51;95368.41;;;23.18;49.94
27425;BME280;15244;49.088;11.886;2022-09-13T14:07:09;95358.25;;;23.14;49.75
27425;BME280;15244;49.088;11.886;2022-09-13T14:12:31;95346.31;;;23.14;49.86
27425;BME280;15244;49.088;11.886;2022-09-13T14:17:57;95346.06;;;23.12;49.99
27425;BME280;15244;49.088;11.886;2022-09-13T14:23:18;95346.22;;;23.08;49.75
27425;BME280;15244;49.088;11.886;2022-09-13T14:28:21;95343.44;;;23.08;49.84
27425;BME280;15244;49.088;11.886;2022-09-13T14:33:34;95356.59;;;23.08;50.05
27425;BME280;15244;49.088;11.886;2022-09-13T14:38:49;95356.78;;;23.04;50.03
27425;BME280;15244;49.088;11.886;2022-09-13T14:44:13;95340.75;;;22.99;49.97
27425;BME280;15244;49.088;11.886;2022-09-13T14:49:26;95349.84;;;23.00;50.03
27425;BME280;15244;49.088;11.886;2022-09-13T14:54:42;95341.22;;;22.98;50.37
27425;BME280;15244;49.088;11.886;2022-09-13T14:59:47;95336.41;;;22.98;50.06
27425;BME280;15244;49.088;11.886;2022-09-13T15:04:52;95339.19;;;22.98;50.18
27425;BME280;15244;49.088;11.886;2022-09-13T15:09:57;95329.34;;;22.97;50.23
27425;BME280;15244;49.088;11.886;2022-09-13T15:15:43;95317.88;;;22.95;50.69
27425;BME280;15244;49.088;11.886;2022-09-13T15:20:48;95311.41;;;22.98;50.89
27425;BME280;15244;49.088;11.886;2022-09-13T15:31:01;95314.47;;;23.00;50.81
27425;BME280;15244;49.088;11.886;2022-09-13T15:41:20;95306.13;;;23.00;50.95
27425;BME280;15244;49.088;11.886;2022-09-13T15:46:22;95301.34;;;23.01;50.65
27425;BME280;15244;49.088;11.886;2022-09-13T15:51:24;95308.91;;;23.00;50.77
27425;BME280;15244;49.088;11.886;2022-09-13T15:56:33;95308.16;;;23.00;51.00
27425;BME280;15244;49.088;11.886;2022-09-13T16:01:35;95307.38;;;22.99;50.92
27425;BME280;15244;49.088;11.886;2022-09-13T16:06:37;95297.97;;;22.97;50.97
27425;BME280;15244;49.088;11.886;2022-09-13T16:11:39;95287.31;;;22.95;51.07
27425;BME280;15244;49.088;11.886;2022-09-13T16:16:40;95287.00;;;22.93;51.10
27425;BME280;15244;49.088;11.886;2022-09-13T16:21:43;95287.50;;;22.91;51.23
27425;BME280;15244;49.088;11.886;2022-09-13T16:26:45;95304.63;;;22.90;51.08
27425;BME280;15244;49.088;11.886;2022-09-13T16:31:46;95289.69;;;22.87;51.12
27425;BME280;15244;49.088;11.886;2022-09-13T16:36:48;95285.09;;;22.84;51.25
27425;BME280;15244;49.088;11.886;2022-09-13T16:41:49;95291.09;;;22.83;51.09
27425;BME280;15244;49.088;11.886;2022-09-13T16:46:51;95284.47;;;22.80;50.92
27425;BME280;15244;49.088;11.886;2022-09-13T16:51:53;95279.88;;;22.77;50.89
27425;BME280;15244;49.088;11.886;2022-09-13T16:56:54;95282.66;;;22.77;51.00
27425;BME280;15244;49.088;11.886;2022-09-13T17:01:56;95280.84;;;22.74;51.00
27425;BME280;15244;49.088;11.886;2022-09-13T17:06:58;95285.78;;;22.70;50.58
27425;BME280;15244;49.088;11.886;2022-09-13T17:12:02;95289.53;;;22.67;50.63
27425;BME280;15244;49.088;11.886;2022-09-13T17:17:04;95264.41;;;22.61;50.74
27425;BME280;15244;49.088;11.886;2022-09-13T17:22:07;95271.19;;;22.60;50.57
27425;BME280;15244;49.088;11.886;2022-09-13T17:27:11;95267.84;;;22.56;50.56
27425;BME280;15244;49.088;11.886;2022-09-13T17:32:12;95272.34;;;22.54;50.53
27425;BME280;15244;49.088;11.886;2022-09-13T17:37:14;95267.44;;;22.48;50.82
27425;BME280;15244;49.088;11.886;2022-09-13T17:42:15;95262.81;;;22.45;50.83
27425;BME280;15244;49.088;11.886;2022-09-13T17:47:23;95265.78;;;22.42;50.78
27425;BME280;15244;49.088;11.886;2022-09-13T17:52:25;95273.81;;;22.40;50.80
27425;BME280;15244;49.088;11.886;2022-09-13T17:57:27;95258.56;;;22.35;50.73
27425;BME280;15244;49.088;11.886;2022-09-13T18:02:28;95257.47;;;22.33;50.83
27425;BME280;15244;49.088;11.886;2022-09-13T18:07:30;95256.13;;;22.28;51.13
27425;BME280;15244;49.088;11.886;2022-09-13T18:12:31;95252.00;;;22.23;51.10
27425;BME280;15244;49.088;11.886;2022-09-13T18:17:33;95236.25;;;22.20;51.02
27425;BME280;15244;49.088;11.886;2022-09-13T18:22:34;95236.44;;;22.17;51.56
27425;BME280;15244;49.088;11.886;2022-09-13T18:27:36;95242.44;;;22.15;51.82
27425;BME280;15244;49.088;11.886;2022-09-13T18:32:37;95243.38;;;22.12;52.06
27425;BME280;15244;49.088;11.886;2022-09-13T18:37:39;95236.31;;;22.11;52.49
27425;BME280;15244;49.088;11.886;2022-09-13T18:42:40;95249.44;;;22.11;52.27
27425;BME280;15244;49.088;11.886;2022-09-13T18:47:45;95240.78;;;22.08;52.58
27425;BME280;15244;49.088;11.886;2022-09-13T18:52:47;95240.03;;;22.08;52.55
27425;BME280;15244;49.088;11.886;2022-09-13T18:57:48;95248.06;;;22.06;52.49
27425;BME280;15244;49.088;11.886;2022-09-13T19:02:50;95227.56;;;22.03;52.45
27425;BME280;15244;49.088;11.886;2022-09-13T19:08:12;95239.88;;;22.02;52.91
27425;BME280;15244;49.088;11.886;2022-09-13T19:13:13;95234.06;;;22.00;52.86
27425;BME280;15244;49.088;11.886;2022-09-13T19:18:15;95240.84;;;21.99;52.83
27425;BME280;15244;49.088;11.886;2022-09-13T19:23:17;95246.06;;;21.97;52.66
27425;BME280;15244;49.088;11.886;2022-09-13T19:28:19;95243.50;;;21.94;52.66
27425;BME280;15244;49.088;11.886;2022-09-13T19:33:21;95253.34;;;21.95;52.81
27425;BME280;15244;49.088;11.886;2022-09-13T19:38:22;95236.88;;;21.91;52.88
27425;BME280;15244;49.088;11.886;2022-09-13T19:43:24;95244.13;;;21.89;52.93
27425;BME280;15244;49.088;11.886;2022-09-13T19:48:26;95242.31;;;21.85;52.94
27425;BME280;15244;49.088;11.886;2022-09-13T19:53:40;95249.56;;;21.83;53.38
27425;BME280;15244;49.088;11.886;2022-09-13T19:59:03;95250.47;;;21.80;53.24
27425;BME280;15244;49.088;11.886;2022-09-13T20:04:09;95247.41;;;21.78;53.19
27425;BME280;15244;49.088;11.886;2022-09-13T20:09:13;95249.13;;;21.75;53.29
27425;BME280;15244;49.088;11.886;2022-09-13T20:14:17;95256.38;;;21.73;53.42
27425;BME280;15244;49.088;11.886;2022-09-13T20:19:19;95250.97;;;21.69;53.71
27425;BME280;15244;49.088;11.886;2022-09-13T20:24:41;95236.03;;;21.67;53.57
27425;BME280;15244;49.088;11.886;2022-09-13T20:29:42;95228.66;;;21.63;53.62
27425;BME280;15244;49.088;11.886;2022-09-13T20:34:44;95234.84;;;21.58;53.69
27425;BME280;15244;49.088;11.886;2022-09-13T20:39:46;95230.69;;;21.54;53.61
27425;BME280;15244;49.088;11.886;2022-09-13T20:44:49;95235.66;;;21.50;53.83
27425;BME280;15244;49.088;11.886;2022-09-13T20:49:50;95227.78;;;21.48;53.92
27425;BME280;15244;49.088;11.886;2022-09-13T20:54:51;95223.19;;;21.45;54.13
27425;BME280;15244;49.088;11.886;2022-09-13T20:59:53;95228.13;;;21.41;54.05
27425;BME280;15244;49.088;11.886;2022-09-13T21:04:55;95221.94;;;21.37;54.01
27425;BME280;15244;49.088;11.886;2022-09-13T21:09:56;95222.09;;;21.33;54.15
27425;BME280;15244;49.088;11.886;2022-09-13T21:15:00;95217.19;;;21.28;54.22
27425;BME280;15244;49.088;11.886;2022-09-13T21:20:02;95221.66;;;21.26;54.19
27425;BME280;15244;49.088;11.886;2022-09-13T21:25:04;95218.28;;;21.21;53.89
27425;BME280;15244;49.088;11.886;2022-09-13T21:30:06;95210.13;;;21.18;54.28
27425;BME280;15244;49.088;11.886;2022-09-13T21:35:08;95216.63;;;21.15;54.16
27425;BME280;15244;49.088;11.886;2022-09-13T21:40:10;95221.09;;;21.12;54.28
27425;BME280;15244;49.088;11.886;2022-09-13T21:45:12;95220.78;;;21.10;54.24
27425;BME280;15244;49.088;11.886;2022-09-13T21:50:14;95222.47;;;21.08;54.20
27425;BME280;15244;49.088;11.886;2022-09-13T21:55:15;95213.84;;;21.06;54.22
27425;BME280;15244;49.088;11.886;2022-09-13T22:00:18;95217.09;;;21.04;54.32
27425;BME280;15244;49.088;11.886;2022-09-13T22:05:20;95211.72;;;21.00;54.51
27425;BME280;15244;49.088;11.886;2022-09-13T22:10:21;95199.84;;;21.00;54.43
27425;BME280;15244;49.088;11.886;2022-09-13T22:15:23;95207.09;;;20.97;54.23
27425;BME280;15244;49.088;11.886;2022-09-13T22:20:25;95203.25;;;20.95;54.27
27425;BME280;15244;49.088;11.886;2022-09-13T22:25:26;95198.94;;;20.94;54.43
27425;BME280;15244;49.088;11.886;2022-09-13T22:30:28;95207.72;;;20.92;54.20
27425;BME280;15244;49.088;11.886;2022-09-13T22:35:29;95206.16;;;20.91;54.21
27425;BME280;15244;49.088;11.886;2022-09-13T22:40:31;95213.41;;;20.89;54.16
27425;BME280;15244;49.088;11.886;2022-09-13T22:45:32;95199.28;;;20.87;54.44
27425;BME280;15244;49.088;11.886;2022-09-13T22:50:34;95208.81;;;20.86;54.41
27425;BME280;15244;49.088;11.886;2022-09-13T22:55:36;95213.56;;;20.85;54.70
27425;BME280;15244;49.088;11.886;2022-09-13T23:00:37;95211.25;;;20.84;54.54
27425;BME280;15244;49.088;11.886;2022-09-13T23:05:39;95211.25;;;20.84;54.88
27425;BME280;15244;49.088;11.886;2022-09-13T23:10:40;95208.97;;;20.82;54.85
27425;BME280;15244;49.088;11.886;2022-09-13T23:15:42;95204.66;;;20.81;54.92
27425;BME280;15244;49.088;11.886;2022-09-13T23:20:43;95197.56;;;20.80;55.04
27425;BME280;15244;49.088;11.886;2022-09-13T23:25:45;95189.44;;;20.76;55.08
27425;BME280;15244;49.088;11.886;2022-09-13T23:30:46;95189.13;;;20.74;55.13
27425;BME280;15244;49.088;11.886;2022-09-13T23:35:48;95182.50;;;20.72;54.88
27425;BME280;15244;49.088;11.886;2022-09-13T23:40:50;95167.59;;;20.69;54.99
27425;BME280;15244;49.088;11.886;2022-09-13T23:45:52;95162.03;;;20.69;55.34
27425;BME280;15244;49.088;11.886;2022-09-13T23:50:58;95173.13;;;20.69;55.16
27425;BME280;15244;49.088;11.886;2022-09-13T23:56:01;95166.03;;;20.68;55.20
